Time;durP1;ratioP1;P1;durP2;ratioP2;P2;SDS_P1;SDS_P2;PMS_P1;PMS_P2;Temp;Humidity;BMP_temperature;BMP_pressure;BME280_temperature;BME280_humidity;BME280_pressure;Samples;Min_cycle;Max_cycle;Signal;HPM_P1;HPM_P2
2021/10/24 00:00:27;;;;;;;33.43;21.60;;;;;;;;;;4986974;28;20289;-73
2021/10/24 00:02:52;;;;;;;30.23;20.23;;;;;;;;;;5002527;28;20246;-73
2021/10/24 00:05:17;;;;;;;32.23;20.63;;;;;;;;;;5002565;28;20245;-73
2021/10/24 00:07:42;;;;;;;31.70;21.00;;;;;;;;;;5003595;28;20182;-73
2021/10/24 00:10:08;;;;;;;35.53;21.33;;;;;;;;;;5001977;28;20226;-73
2021/10/24 00:12:33;;;;;;;30.53;20.23;;;;;;;;;;5004681;28;20269;-73
2021/10/24 00:14:58;;;;;;;33.23;20.63;;;;;;;;;;4983694;28;20227;-73
2021/10/24 00:17:23;;;;;;;29.93;20.47;;;;;;;;;;4996453;28;20830;-73
2021/10/24 00:19:49;;;;;;;32.83;21.37;;;;;;;;;;5007916;28;20589;-72
2021/10/24 00:22:14;;;;;;;30.80;20.60;;;;;;;;;;4991798;28;20226;-72
2021/10/24 00:24:39;;;;;;;30.43;20.90;;;;;;;;;;5008785;28;20179;-72
2021/10/24 00:27:04;;;;;;;31.40;19.60;;;;;;;;;;5007450;28;20318;-73
2021/10/24 00:29:29;;;;;;;29.20;19.50;;;;;;;;;;5007618;28;20218;-73
2021/10/24 00:31:55;;;;;;;34.57;20.60;;;;;;;;;;5004801;28;20205;-73
2021/10/24 00:34:20;;;;;;;31.97;20.20;;;;;;;;;;4983398;28;20187;-74
2021/10/24 00:36:45;;;;;;;28.47;18.40;;;;;;;;;;5007482;28;20222;-74
2021/10/24 00:39:10;;;;;;;30.37;18.77;;;;;;;;;;5008419;28;20222;-72
2021/10/24 00:41:35;;;;;;;30.07;19.47;;;;;;;;;;5002176;28;20183;-74
2021/10/24 00:44:20;;;;;;;26.80;18.67;;;;;;;;;;5008868;28;20175;-73
2021/10/24 00:46:46;;;;;;;31.03;19.37;;;;;;;;;;5006754;28;20179;-73
2021/10/24 00:49:11;;;;;;;25.57;19.27;;;;;;;;;;5004735;28;20209;-73
2021/10/24 00:51:37;;;;;;;26.97;19.17;;;;;;;;;;5006940;28;20180;-73
2021/10/24 00:54:02;;;;;;;30.90;18.23;;;;;;;;;;5012005;28;20187;-73
2021/10/24 00:56:27;;;;;;;27.30;18.20;;;;;;;;;;5004690;28;20210;-73
2021/10/24 00:58:53;;;;;;;27.60;17.70;;;;;;;;;;5007730;28;20199;-74
2021/10/24 01:01:18;;;;;;;28.03;19.57;;;;;;;;;;5010017;28;20179;-72
2021/10/24 01:03:44;;;;;;;31.87;19.53;;;;;;;;;;4985422;28;20634;-73
2021/10/24 01:06:09;;;;;;;25.20;18.17;;;;;;;;;;4995421;28;20190;-72
2021/10/24 01:08:35;;;;;;;28.50;18.93;;;;;;;;;;5011128;28;20214;-72
2021/10/24 01:11:01;;;;;;;25.93;17.73;;;;;;;;;;5010193;28;20210;-74
2021/10/24 01:13:26;;;;;;;27.33;19.23;;;;;;;;;;4993870;28;20210;-72
2021/10/24 01:15:51;;;;;;;24.30;17.27;;;;;;;;;;5009199;28;20230;-72
2021/10/24 01:18:17;;;;;;;25.37;17.50;;;;;;;;;;5005709;28;20183;-72
2021/10/24 01:20:42;;;;;;;26.40;18.70;;;;;;;;;;5009051;28;20183;-73
2021/10/24 01:23:09;;;;;;;24.70;16.93;;;;;;;;;;5009857;28;20202;-74
2021/10/24 01:25:34;;;;;;;26.50;18.90;;;;;;;;;;5009488;28;20222;-72
2021/10/24 01:27:59;;;;;;;25.50;18.67;;;;;;;;;;5009374;28;20183;-72
2021/10/24 01:30:24;;;;;;;25.23;17.90;;;;;;;;;;5010227;28;20215;-72
2021/10/24 01:32:50;;;;;;;26.93;18.23;;;;;;;;;;5005780;28;20252;-72
2021/10/24 01:35:15;;;;;;;29.83;19.00;;;;;;;;;;5010345;28;20203;-72
2021/10/24 01:37:41;;;;;;;27.73;17.77;;;;;;;;;;4997447;28;20203;-72
2021/10/24 01:40:08;;;;;;;26.33;18.33;;;;;;;;;;5008792;28;20187;-72
2021/10/24 01:42:34;;;;;;;28.47;17.60;;;;;;;;;;4991686;28;20183;-72
2021/10/24 01:45:06;;;;;;;30.47;19.03;;;;;;;;;;5006924;28;20183;-72
2021/10/24 01:47:31;;;;;;;29.70;19.97;;;;;;;;;;5007876;28;20218;-72
2021/10/24 01:49:57;;;;;;;28.23;19.40;;;;;;;;;;5009266;28;20214;-74
2021/10/24 01:52:22;;;;;;;27.33;19.00;;;;;;;;;;5007490;28;20171;-75
2021/10/24 01:54:47;;;;;;;31.43;19.80;;;;;;;;;;5007783;28;20199;-72
2021/10/24 01:57:12;;;;;;;28.13;18.47;;;;;;;;;;5009337;28;20840;-72
2021/10/24 01:59:37;;;;;;;31.83;19.13;;;;;;;;;;5007022;28;20626;-72
2021/10/24 02:02:03;;;;;;;28.97;19.67;;;;;;;;;;4992339;28;20229;-72
2021/10/24 02:04:28;;;;;;;30.30;19.63;;;;;;;;;;5010528;28;20529;-74
2021/10/24 02:06:53;;;;;;;29.57;20.67;;;;;;;;;;5006604;28;20167;-76
2021/10/24 02:09:18;;;;;;;27.20;18.43;;;;;;;;;;5035860;22;20279;-74
2021/10/24 02:11:43;;;;;;;26.37;18.57;;;;;;;;;;5045730;28;20185;-74
2021/10/24 02:14:08;;;;;;;29.07;18.40;;;;;;;;;;5047078;28;20260;-73
2021/10/24 02:16:34;;;;;;;27.77;18.60;;;;;;;;;;5050880;28;20254;-72
2021/10/24 02:18:59;;;;;;;34.73;18.93;;;;;;;;;;5045610;28;20194;-73
2021/10/24 02:21:24;;;;;;;33.33;19.33;;;;;;;;;;5034096;28;20181;-72
2021/10/24 02:23:49;;;;;;;25.97;17.47;;;;;;;;;;5012377;28;20185;-73
2021/10/24 02:26:15;;;;;;;36.43;21.23;;;;;;;;;;5033029;28;20260;-73
2021/10/24 02:28:40;;;;;;;30.80;19.53;;;;;;;;;;5027881;28;20198;-73
2021/10/24 02:31:05;;;;;;;31.40;18.57;;;;;;;;;;5031985;28;20186;-73
2021/10/24 02:33:30;;;;;;;31.47;20.30;;;;;;;;;;5030430;28;20201;-73
2021/10/24 02:35:55;;;;;;;31.80;18.70;;;;;;;;;;5028953;28;20277;-73
2021/10/24 02:38:20;;;;;;;27.97;18.43;;;;;;;;;;5022984;28;20178;-74
2021/10/24 02:40:46;;;;;;;39.37;20.60;;;;;;;;;;5033482;28;20178;-74
2021/10/24 02:43:11;;;;;;;29.43;19.70;;;;;;;;;;5032366;28;20178;-73
2021/10/24 02:45:36;;;;;;;28.80;18.97;;;;;;;;;;5011267;28;20178;-74
2021/10/24 02:48:05;;;;;;;26.33;19.13;;;;;;;;;;5024583;28;20417;-73
2021/10/24 02:50:30;;;;;;;35.20;19.67;;;;;;;;;;5022793;28;20214;-73
2021/10/24 02:52:55;;;;;;;27.40;18.73;;;;;;;;;;5022958;28;20194;-73
2021/10/24 02:55:20;;;;;;;30.83;19.73;;;;;;;;;;5034403;28;21610;-73
2021/10/24 02:57:45;;;;;;;27.30;17.30;;;;;;;;;;5029987;28;20181;-73
2021/10/24 03:00:11;;;;;;;28.60;18.63;;;;;;;;;;5030503;28;20884;-74
2021/10/24 03:02:37;;;;;;;33.13;20.27;;;;;;;;;;5033072;28;20189;-73
2021/10/24 03:05:02;;;;;;;26.70;19.00;;;;;;;;;;5024820;28;20182;-74
2021/10/24 03:07:27;;;;;;;26.17;18.57;;;;;;;;;;5032507;28;20186;-73
2021/10/24 03:09:52;;;;;;;29.97;19.93;;;;;;;;;;5033553;28;20209;-73
2021/10/24 03:12:18;;;;;;;32.67;19.00;;;;;;;;;;5029130;28;20178;-74
2021/10/24 03:14:43;;;;;;;29.27;18.90;;;;;;;;;;5032344;28;20205;-74
2021/10/24 03:17:08;;;;;;;29.57;18.13;;;;;;;;;;5033977;28;20260;-73
2021/10/24 03:19:33;;;;;;;30.17;17.93;;;;;;;;;;5030656;28;20665;-74
2021/10/24 03:21:59;;;;;;;33.20;19.63;;;;;;;;;;5030845;28;20183;-73
2021/10/24 03:24:24;;;;;;;26.97;19.00;;;;;;;;;;5032805;28;20227;-73
2021/10/24 03:26:49;;;;;;;32.30;19.77;;;;;;;;;;5030503;28;20182;-73
2021/10/24 03:29:15;;;;;;;31.63;19.27;;;;;;;;;;5034699;28;20627;-73
2021/10/24 03:31:40;;;;;;;30.27;20.10;;;;;;;;;;5032248;28;20628;-72
2021/10/24 03:34:05;;;;;;;32.87;18.87;;;;;;;;;;5032371;28;20185;-72
2021/10/24 03:36:30;;;;;;;29.90;19.27;;;;;;;;;;5039080;28;20671;-72
2021/10/24 03:38:55;;;;;;;32.30;18.97;;;;;;;;;;5036701;28;20264;-73
2021/10/24 03:41:21;;;;;;;31.87;19.97;;;;;;;;;;5031160;28;20212;-73
2021/10/24 03:43:46;;;;;;;29.63;19.13;;;;;;;;;;5037105;28;20174;-73
2021/10/24 03:46:11;;;;;;;33.70;20.83;;;;;;;;;;5033885;28;20284;-73
2021/10/24 03:48:36;;;;;;;30.47;19.40;;;;;;;;;;5033909;28;20209;-73
2021/10/24 03:51:02;;;;;;;30.10;20.20;;;;;;;;;;5032584;28;20261;-73
2021/10/24 03:53:27;;;;;;;28.10;18.93;;;;;;;;;;5036358;28;20279;-73
2021/10/24 03:55:52;;;;;;;31.20;19.70;;;;;;;;;;5031789;28;20206;-73
2021/10/24 03:58:17;;;;;;;29.97;19.13;;;;;;;;;;5030564;28;20205;-73
2021/10/24 04:00:43;;;;;;;31.37;19.13;;;;;;;;;;5014025;28;20198;-73
2021/10/24 04:03:08;;;;;;;29.33;18.90;;;;;;;;;;5033438;28;20636;-73
2021/10/24 04:05:33;;;;;;;36.30;20.87;;;;;;;;;;5005093;28;20315;-73
2021/10/24 04:07:59;;;;;;;32.50;20.93;;;;;;;;;;5035274;28;20628;-73
2021/10/24 04:10:25;;;;;;;30.93;21.33;;;;;;;;;;5032803;28;20214;-73
2021/10/24 04:12:50;;;;;;;34.00;20.73;;;;;;;;;;5029444;28;20705;-74
2021/10/24 04:15:16;;;;;;;39.30;21.60;;;;;;;;;;5033520;28;20293;-73
2021/10/24 04:17:41;;;;;;;36.60;21.77;;;;;;;;;;5031935;28;20262;-73
2021/10/24 04:20:07;;;;;;;35.23;21.60;;;;;;;;;;5031164;28;20199;-73
2021/10/24 04:22:33;;;;;;;32.10;19.03;;;;;;;;;;5030813;28;20210;-72
2021/10/24 04:24:58;;;;;;;31.83;21.30;;;;;;;;;;5033382;28;20636;-73
2021/10/24 04:27:23;;;;;;;32.00;20.53;;;;;;;;;;5031548;28;20182;-73
2021/10/24 04:29:48;;;;;;;29.33;19.67;;;;;;;;;;5030756;28;20232;-73
2021/10/24 04:32:14;;;;;;;33.03;20.97;;;;;;;;;;5032279;28;20631;-74
2021/10/24 04:34:39;;;;;;;30.50;21.33;;;;;;;;;;5034760;28;20614;-73
2021/10/24 04:37:04;;;;;;;31.13;20.57;;;;;;;;;;5029413;28;20731;-73
2021/10/24 04:39:29;;;;;;;32.80;20.40;;;;;;;;;;5032578;28;20198;-73
2021/10/24 04:41:54;;;;;;;31.87;19.27;;;;;;;;;;5030361;28;20186;-73
2021/10/24 04:44:19;;;;;;;35.30;21.23;;;;;;;;;;5030120;28;20187;-73
2021/10/24 04:46:45;;;;;;;31.40;20.97;;;;;;;;;;5030312;28;20182;-73
2021/10/24 04:49:10;;;;;;;33.80;21.80;;;;;;;;;;5028413;28;20571;-73
2021/10/24 04:51:35;;;;;;;31.00;20.63;;;;;;;;;;5037522;28;20269;-73
2021/10/24 04:54:00;;;;;;;33.40;22.30;;;;;;;;;;5028536;28;20186;-73
2021/10/24 04:56:25;;;;;;;31.47;20.67;;;;;;;;;;5028100;28;20799;-73
2021/10/24 04:58:51;;;;;;;34.87;21.33;;;;;;;;;;5031822;28;20194;-73
2021/10/24 05:01:16;;;;;;;31.20;20.47;;;;;;;;;;5036542;28;20211;-73
2021/10/24 05:03:41;;;;;;;32.70;20.40;;;;;;;;;;5015903;28;20186;-72
2021/10/24 05:06:07;;;;;;;31.07;20.27;;;;;;;;;;5016633;28;20189;-74
2021/10/24 05:08:32;;;;;;;28.43;19.10;;;;;;;;;;5014414;28;20182;-73
2021/10/24 05:10:57;;;;;;;34.80;20.77;;;;;;;;;;5014389;28;20282;-73
2021/10/24 05:13:22;;;;;;;31.63;20.17;;;;;;;;;;5017463;28;20194;-73
2021/10/24 05:15:48;;;;;;;36.57;20.80;;;;;;;;;;5013983;28;20203;-74
2021/10/24 05:18:13;;;;;;;32.67;21.47;;;;;;;;;;5018037;28;20713;-74
2021/10/24 05:20:38;;;;;;;31.50;21.17;;;;;;;;;;5013958;28;20221;-74
2021/10/24 05:23:05;;;;;;;32.13;20.33;;;;;;;;;;5017806;28;20209;-73
2021/10/24 05:25:30;;;;;;;30.63;19.40;;;;;;;;;;5025708;28;20296;-73
2021/10/24 05:27:56;;;;;;;32.73;20.20;;;;;;;;;;5023054;28;20186;-74
2021/10/24 05:30:22;;;;;;;29.07;19.27;;;;;;;;;;5017600;28;20255;-73
2021/10/24 05:32:47;;;;;;;32.03;20.53;;;;;;;;;;4997401;28;20190;-73
2021/10/24 05:35:13;;;;;;;29.33;20.67;;;;;;;;;;5015238;28;20300;-73
2021/10/24 05:37:38;;;;;;;29.43;20.53;;;;;;;;;;5016043;28;21483;-74
2021/10/24 05:40:03;;;;;;;34.57;19.57;;;;;;;;;;5014876;28;20194;-74
2021/10/24 05:42:29;;;;;;;40.53;21.90;;;;;;;;;;4995792;28;20217;-74
2021/10/24 05:44:54;;;;;;;29.80;20.97;;;;;;;;;;5016265;28;20208;-74
2021/10/24 05:47:19;;;;;;;27.57;19.27;;;;;;;;;;5010430;28;20317;-73
2021/10/24 05:49:44;;;;;;;30.27;20.60;;;;;;;;;;5013916;28;20216;-74
2021/10/24 05:52:09;;;;;;;30.20;19.77;;;;;;;;;;5016253;28;20690;-74
2021/10/24 05:54:35;;;;;;;36.77;20.93;;;;;;;;;;5016170;28;20944;-73
2021/10/24 05:57:00;;;;;;;32.40;20.23;;;;;;;;;;5015394;28;20194;-73
2021/10/24 05:59:25;;;;;;;28.60;20.23;;;;;;;;;;5013353;28;21871;-73
2021/10/24 06:01:50;;;;;;;36.83;20.97;;;;;;;;;;5015272;28;20211;-75
2021/10/24 06:04:15;;;;;;;35.67;19.83;;;;;;;;;;5011225;28;20216;-73
2021/10/24 06:06:41;;;;;;;30.93;19.47;;;;;;;;;;4998872;28;20249;-73
2021/10/24 06:09:06;;;;;;;30.10;19.33;;;;;;;;;;5000415;28;20747;-73
2021/10/24 06:11:46;;;;;;;35.07;19.63;;;;;;;;;;5016464;28;20225;-74
2021/10/24 06:14:11;;;;;;;32.97;20.30;;;;;;;;;;5016024;28;20655;-74
2021/10/24 06:16:36;;;;;;;33.03;21.53;;;;;;;;;;4999998;28;20241;-73
2021/10/24 06:19:01;;;;;;;34.03;21.00;;;;;;;;;;5017644;28;20353;-73
2021/10/24 06:21:26;;;;;;;32.73;21.57;;;;;;;;;;5024598;28;20974;-75
2021/10/24 06:23:52;;;;;;;33.67;20.53;;;;;;;;;;5016607;28;20182;-74
2021/10/24 06:26:17;;;;;;;33.43;20.73;;;;;;;;;;5016751;28;20277;-74
2021/10/24 06:28:43;;;;;;;38.97;22.57;;;;;;;;;;5022947;28;20225;-73
2021/10/24 06:31:08;;;;;;;33.53;21.90;;;;;;;;;;5006147;28;20182;-73
2021/10/24 06:33:33;;;;;;;38.27;21.77;;;;;;;;;;5020471;28;20647;-73
2021/10/24 06:35:58;;;;;;;36.97;22.10;;;;;;;;;;5022442;28;20209;-73
2021/10/24 06:38:23;;;;;;;35.57;22.63;;;;;;;;;;5020122;28;20178;-74
2021/10/24 06:40:49;;;;;;;34.67;22.07;;;;;;;;;;5021845;28;20190;-73
2021/10/24 06:43:14;;;;;;;38.40;21.93;;;;;;;;;;5020858;28;20866;-74
2021/10/24 06:45:39;;;;;;;38.50;22.93;;;;;;;;;;5018940;28;20186;-75
2021/10/24 06:48:06;;;;;;;36.80;22.43;;;;;;;;;;5017632;28;20223;-74
2021/10/24 06:50:32;;;;;;;38.90;22.00;;;;;;;;;;5016229;28;20220;-73
2021/10/24 06:52:57;;;;;;;42.50;23.93;;;;;;;;;;5017484;28;20473;-74
2021/10/24 06:55:22;;;;;;;40.90;23.13;;;;;;;;;;5018550;28;20377;-73
2021/10/24 06:57:52;;;;;;;37.53;23.23;;;;;;;;;;5020826;28;20664;-73
2021/10/24 07:00:21;;;;;;;33.23;22.03;;;;;;;;;;5015702;28;20210;-74
2021/10/24 07:02:47;;;;;;;37.40;22.50;;;;;;;;;;5020137;28;21848;-73
2021/10/24 07:05:12;;;;;;;35.03;21.97;;;;;;;;;;5018004;28;20186;-73
2021/10/24 07:07:37;;;;;;;40.23;22.93;;;;;;;;;;5001747;28;20474;-73
2021/10/24 07:10:04;;;;;;;35.57;22.57;;;;;;;;;;5017349;28;20213;-73
2021/10/24 07:12:29;;;;;;;45.10;22.50;;;;;;;;;;5029824;28;20186;-74
2021/10/24 07:14:54;;;;;;;36.53;20.93;;;;;;;;;;5028799;28;20205;-73
2021/10/24 07:17:19;;;;;;;35.20;21.43;;;;;;;;;;5033126;28;20171;-73
2021/10/24 07:19:45;;;;;;;46.40;22.27;;;;;;;;;;5011985;28;20798;-74
2021/10/24 07:22:10;;;;;;;34.93;22.07;;;;;;;;;;5029025;28;20178;-73
2021/10/24 07:24:35;;;;;;;39.93;23.73;;;;;;;;;;5031899;28;20673;-73
2021/10/24 07:27:01;;;;;;;38.33;22.77;;;;;;;;;;5032524;28;20660;-73
2021/10/24 07:29:27;;;;;;;40.47;24.37;;;;;;;;;;5031379;28;20190;-73
2021/10/24 07:31:52;;;;;;;36.83;23.33;;;;;;;;;;5031486;28;20262;-73
2021/10/24 07:34:17;;;;;;;35.23;22.17;;;;;;;;;;5038521;28;20170;-73
2021/10/24 07:36:42;;;;;;;38.80;22.83;;;;;;;;;;5031377;28;20202;-74
2021/10/24 07:39:07;;;;;;;33.13;22.60;;;;;;;;;;5028836;28;20209;-73
2021/10/24 07:41:32;;;;;;;36.80;22.20;;;;;;;;;;5031294;28;20197;-73
2021/10/24 07:43:58;;;;;;;28.23;20.77;;;;;;;;;;5031107;28;20182;-74
2021/10/24 07:46:23;;;;;;;27.47;20.10;;;;;;;;;;5032075;28;20707;-73
2021/10/24 07:48:48;;;;;;;28.60;19.70;;;;;;;;;;5030625;28;20229;-72
2021/10/24 07:51:13;;;;;;;30.63;20.10;;;;;;;;;;5029882;28;20210;-72
2021/10/24 07:53:39;;;;;;;23.47;17.30;;;;;;;;;;5032251;28;20228;-73
2021/10/24 07:56:04;;;;;;;23.10;17.53;;;;;;;;;;5029943;28;20206;-74
2021/10/24 07:58:29;;;;;;;19.97;16.73;;;;;;;;;;5030719;28;20253;-73
2021/10/24 08:00:55;;;;;;;18.23;14.83;;;;;;;;;;5031196;28;20197;-72
2021/10/24 08:03:21;;;;;;;20.27;14.40;;;;;;;;;;5029989;28;20189;-73
2021/10/24 08:05:46;;;;;;;14.87;12.57;;;;;;;;;;5032684;28;20221;-73
2021/10/24 08:08:11;;;;;;;13.60;11.30;;;;;;;;;;5013840;28;20213;-73
2021/10/24 08:10:37;;;;;;;13.07;11.83;;;;;;;;;;5032510;28;20221;-73
2021/10/24 08:13:02;;;;;;;11.07;9.90;;;;;;;;;;5033112;28;20277;-72
2021/10/24 08:15:27;;;;;;;8.77;7.97;;;;;;;;;;5032865;28;20194;-72
2021/10/24 08:17:53;;;;;;;10.90;9.30;;;;;;;;;;5033287;28;20178;-73
2021/10/24 08:20:18;;;;;;;9.43;8.40;;;;;;;;;;5023858;28;20198;-73
2021/10/24 08:22:43;;;;;;;10.27;7.88;;;;;;;;;;5018708;28;20177;-74
2021/10/24 08:25:09;;;;;;;9.93;7.90;;;;;;;;;;5019074;28;20662;-73
2021/10/24 08:27:35;;;;;;;13.07;8.30;;;;;;;;;;5017871;28;20195;-74
2021/10/24 08:30:01;;;;;;;10.05;7.85;;;;;;;;;;5002594;28;20202;-74
2021/10/24 08:32:26;;;;;;;8.48;7.40;;;;;;;;;;5019077;28;20200;-74
2021/10/24 08:34:51;;;;;;;10.80;8.15;;;;;;;;;;5017740;28;20250;-76
2021/10/24 08:37:19;;;;;;;8.90;8.00;;;;;;;;;;5019140;28;20191;-73
2021/10/24 08:39:48;;;;;;;11.93;7.43;;;;;;;;;;5018604;28;20277;-73
2021/10/24 08:42:13;;;;;;;10.23;8.13;;;;;;;;;;5018824;28;20275;-72
2021/10/24 08:44:38;;;;;;;10.73;7.43;;;;;;;;;;5016728;28;20186;-75
2021/10/24 08:47:03;;;;;;;8.33;7.07;;;;;;;;;;5019237;28;20213;-72
2021/10/24 08:49:29;;;;;;;12.53;7.53;;;;;;;;;;5001823;28;20206;-73
2021/10/24 08:51:54;;;;;;;9.82;6.90;;;;;;;;;;5019383;28;20687;-73
2021/10/24 08:54:28;;;;;;;9.53;7.03;;;;;;;;;;5019023;28;20179;-74
2021/10/24 08:56:53;;;;;;;9.07;6.70;;;;;;;;;;5017135;28;20231;-73
2021/10/24 08:59:18;;;;;;;9.17;6.37;;;;;;;;;;5016236;28;21195;-73
2021/10/24 09:01:54;;;;;;;8.43;6.20;;;;;;;;;;5002513;28;20208;-74
2021/10/24 09:04:19;;;;;;;10.23;6.60;;;;;;;;;;5016206;28;20226;-74
2021/10/24 09:06:46;;;;;;;11.13;6.50;;;;;;;;;;5013511;28;20190;-73
2021/10/24 09:09:13;;;;;;;7.93;6.20;;;;;;;;;;5013388;28;20305;-73
2021/10/24 09:11:42;;;;;;;7.45;5.90;;;;;;;;;;5013787;28;20196;-74
2021/10/24 09:14:07;;;;;;;8.32;5.60;;;;;;;;;;5017332;28;20192;-74
2021/10/24 09:16:50;;;;;;;8.33;5.73;;;;;;;;;;5018375;28;20210;-73
2021/10/24 09:19:15;;;;;;;7.18;6.25;;;;;;;;;;5000932;28;20573;-73
2021/10/24 09:21:40;;;;;;;8.73;6.82;;;;;;;;;;5002765;28;20174;-73
2021/10/24 09:24:06;;;;;;;6.95;6.25;;;;;;;;;;5017033;28;20190;-73
2021/10/24 09:26:31;;;;;;;6.95;6.00;;;;;;;;;;5017847;28;20194;-73
2021/10/24 09:29:01;;;;;;;10.48;6.75;;;;;;;;;;5018550;28;20201;-74
2021/10/24 09:31:27;;;;;;;8.77;6.03;;;;;;;;;;5012755;28;20193;-72
2021/10/24 09:33:52;;;;;;;7.38;6.32;;;;;;;;;;4999454;28;20217;-76
2021/10/24 09:36:24;;;;;;;11.05;6.40;;;;;;;;;;5015477;28;20284;-73
2021/10/24 09:38:50;;;;;;;7.88;5.50;;;;;;;;;;5005982;28;20243;-73
2021/10/24 09:41:15;;;;;;;9.82;6.43;;;;;;;;;;4997072;28;21088;-74
2021/10/24 09:43:42;;;;;;;14.07;6.50;;;;;;;;;;5015104;28;20197;-74
2021/10/24 09:46:07;;;;;;;9.60;6.05;;;;;;;;;;5016657;28;20182;-75
2021/10/24 09:48:34;;;;;;;7.55;5.35;;;;;;;;;;5019473;28;20185;-75
2021/10/24 09:51:00;;;;;;;11.68;5.38;;;;;;;;;;5016529;28;21092;-75
2021/10/24 09:53:36;;;;;;;8.15;6.25;;;;;;;;;;5014856;28;20282;-74
2021/10/24 09:56:10;;;;;;;6.85;6.03;;;;;;;;;;4998208;28;20210;-74
2021/10/24 09:58:36;;;;;;;7.55;5.55;;;;;;;;;;5017199;28;20205;-74
2021/10/24 10:01:03;;;;;;;7.40;5.63;;;;;;;;;;5026660;28;20647;-74
2021/10/24 10:03:28;;;;;;;8.35;5.38;;;;;;;;;;4997279;28;20189;-75
2021/10/24 10:05:54;;;;;;;7.95;5.80;;;;;;;;;;5015381;28;20186;-73
2021/10/24 10:08:20;;;;;;;10.52;5.68;;;;;;;;;;4999309;28;20957;-74
2021/10/24 10:10:50;;;;;;;6.13;4.97;;;;;;;;;;4997042;28;20201;-75
2021/10/24 10:13:24;;;;;;;6.85;5.68;;;;;;;;;;5012922;28;20182;-73
2021/10/24 10:15:50;;;;;;;9.40;5.30;;;;;;;;;;5016055;28;20197;-74
2021/10/24 10:18:16;;;;;;;6.20;5.32;;;;;;;;;;5020156;28;20649;-73
2021/10/24 10:20:44;;;;;;;6.13;5.10;;;;;;;;;;5030482;28;20426;-72
2021/10/24 10:23:12;;;;;;;8.38;5.20;;;;;;;;;;5029752;28;20219;-72
2021/10/24 10:25:38;;;;;;;6.78;5.22;;;;;;;;;;5030754;28;20174;-73
2021/10/24 10:28:04;;;;;;;5.50;5.00;;;;;;;;;;5023416;28;20228;-73
2021/10/24 10:30:32;;;;;;;7.20;4.75;;;;;;;;;;5015660;28;20721;-75
2021/10/24 10:32:58;;;;;;;6.93;5.05;;;;;;;;;;5014570;28;20178;-72
2021/10/24 10:35:25;;;;;;;5.88;4.55;;;;;;;;;;5015724;28;20200;-72
2021/10/24 10:37:59;;;;;;;6.47;4.80;;;;;;;;;;5012580;28;20628;-73
2021/10/24 10:40:26;;;;;;;7.15;4.88;;;;;;;;;;5015927;28;20198;-71
2021/10/24 10:42:56;;;;;;;6.15;4.88;;;;;;;;;;5016515;28;20186;-72
2021/10/24 10:45:25;;;;;;;6.80;5.22;;;;;;;;;;5021605;28;20241;-73
2021/10/24 10:47:51;;;;;;;7.53;4.63;;;;;;;;;;5012657;28;20174;-74
2021/10/24 10:50:29;;;;;;;10.85;5.93;;;;;;;;;;5001566;28;20206;-72
2021/10/24 10:52:58;;;;;;;5.18;4.50;;;;;;;;;;5020118;28;20874;-74
2021/10/24 10:55:25;;;;;;;8.25;5.88;;;;;;;;;;5014093;28;20222;-73
2021/10/24 10:57:50;;;;;;;9.07;5.25;;;;;;;;;;5017017;28;20217;-73
2021/10/24 11:00:32;;;;;;;6.00;5.28;;;;;;;;;;5013923;28;20614;-72
2021/10/24 11:02:57;;;;;;;6.63;4.40;;;;;;;;;;5013633;28;20235;-74
2021/10/24 11:05:32;;;;;;;5.70;5.13;;;;;;;;;;5013849;28;20211;-74
2021/10/24 11:07:58;;;;;;;9.43;5.45;;;;;;;;;;5015723;28;20184;-74
2021/10/24 11:10:42;;;;;;;8.27;5.53;;;;;;;;;;5015969;28;20213;-75
2021/10/24 11:13:27;;;;;;;5.30;4.65;;;;;;;;;;5016069;28;20517;-73
2021/10/24 11:15:52;;;;;;;7.20;5.28;;;;;;;;;;5025231;28;20574;-73
2021/10/24 11:18:28;;;;;;;7.70;5.57;;;;;;;;;;5016571;28;20178;-72
2021/10/24 11:20:54;;;;;;;6.25;5.30;;;;;;;;;;5018998;28;20177;-72
2021/10/24 11:23:20;;;;;;;5.63;5.07;;;;;;;;;;5019625;28;20631;-72
2021/10/24 11:25:46;;;;;;;8.25;4.90;;;;;;;;;;5021272;28;20183;-73
2021/10/24 11:28:14;;;;;;;10.70;6.55;;;;;;;;;;5019752;28;20193;-73
2021/10/24 11:30:40;;;;;;;5.80;5.25;;;;;;;;;;5001024;28;20293;-73
2021/10/24 11:33:06;;;;;;;6.53;5.03;;;;;;;;;;5018973;28;20672;-73
2021/10/24 11:35:33;;;;;;;5.88;5.28;;;;;;;;;;5018277;28;20205;-73
2021/10/24 11:38:00;;;;;;;5.68;5.10;;;;;;;;;;5017722;28;20265;-74
2021/10/24 11:40:25;;;;;;;6.57;5.30;;;;;;;;;;5000877;28;20206;-73
2021/10/24 11:42:59;;;;;;;8.25;5.57;;;;;;;;;;5023040;28;20611;-73
2021/10/24 11:45:26;;;;;;;6.05;5.28;;;;;;;;;;5019628;28;20879;-73
2021/10/24 11:48:02;;;;;;;9.25;5.28;;;;;;;;;;5019000;28;20182;-73
2021/10/24 11:50:38;;;;;;;6.18;5.55;;;;;;;;;;5018175;28;20653;-73
2021/10/24 11:53:03;;;;;;;5.72;5.05;;;;;;;;;;5018401;28;20250;-73
2021/10/24 11:55:28;;;;;;;5.45;4.95;;;;;;;;;;5017547;28;20284;-72
2021/10/24 12:00:39;;;;;;;6.63;5.25;;;;;;;;;;5017992;28;20205;-73
2021/10/24 12:03:04;;;;;;;6.25;5.03;;;;;;;;;;5017434;28;20554;-72
2021/10/24 12:05:30;;;;;;;5.40;4.85;;;;;;;;;;5017399;28;20169;-72
2021/10/24 12:07:57;;;;;;;6.65;5.55;;;;;;;;;;5016679;28;20595;-71
2021/10/24 12:10:38;;;;;;;8.13;5.47;;;;;;;;;;4998925;28;20217;-73
2021/10/24 12:13:04;;;;;;;6.35;4.57;;;;;;;;;;5018289;28;20179;-73
2021/10/24 12:15:37;;;;;;;8.30;5.72;;;;;;;;;;5018212;28;20213;-73
2021/10/24 12:18:11;;;;;;;5.72;5.18;;;;;;;;;;5004095;28;20178;-74
2021/10/24 12:20:36;;;;;;;9.32;5.63;;;;;;;;;;5017995;28;20213;-73
2021/10/24 12:23:03;;;;;;;7.40;5.22;;;;;;;;;;5021917;28;20270;-75
2021/10/24 12:25:42;;;;;;;5.07;4.50;;;;;;;;;;5016889;28;20187;-71
2021/10/24 12:28:09;;;;;;;6.90;4.65;;;;;;;;;;5018327;28;20220;-74
2021/10/24 12:30:34;;;;;;;6.28;4.60;;;;;;;;;;5008205;28;20289;-75
2021/10/24 12:33:01;;;;;;;6.45;4.57;;;;;;;;;;5014746;28;20191;-74
2021/10/24 12:35:27;;;;;;;5.93;5.38;;;;;;;;;;5018096;28;20206;-73
2021/10/24 12:37:56;;;;;;;6.53;4.68;;;;;;;;;;5018803;28;20730;-73
2021/10/24 12:40:25;;;;;;;6.85;5.18;;;;;;;;;;5017757;28;20198;-72
2021/10/24 12:43:00;;;;;;;5.78;5.22;;;;;;;;;;4999019;28;20182;-72
2021/10/24 12:45:25;;;;;;;5.47;4.97;;;;;;;;;;5019105;28;20173;-73
2021/10/24 12:47:57;;;;;;;7.30;5.47;;;;;;;;;;5016083;28;20173;-75
2021/10/24 12:50:32;;;;;;;7.13;5.57;;;;;;;;;;5015441;28;20443;-74
2021/10/24 12:53:18;;;;;;;7.68;5.00;;;;;;;;;;5016062;28;20394;-74
2021/10/24 12:55:57;;;;;;;5.22;4.72;;;;;;;;;;5015196;28;20245;-73
2021/10/24 12:58:22;;;;;;;7.95;5.50;;;;;;;;;;5016862;28;20190;-73
2021/10/24 13:00:47;;;;;;;9.30;5.17;;;;;;;;;;5016701;28;20466;-74
2021/10/24 13:03:13;;;;;;;8.80;5.57;;;;;;;;;;5017779;28;20431;-74
2021/10/24 13:05:38;;;;;;;7.28;4.88;;;;;;;;;;5017046;28;20554;-73
2021/10/24 13:08:03;;;;;;;8.07;5.03;;;;;;;;;;5010429;28;20209;-75
2021/10/24 13:10:28;;;;;;;9.85;4.68;;;;;;;;;;5017888;28;20260;-74
2021/10/24 13:12:54;;;;;;;6.43;5.30;;;;;;;;;;5012099;28;20673;-74
2021/10/24 13:15:19;;;;;;;5.53;5.03;;;;;;;;;;5016686;28;21132;-74
2021/10/24 13:17:45;;;;;;;5.60;4.60;;;;;;;;;;5005118;28;20209;-72
2021/10/24 13:20:10;;;;;;;6.40;5.15;;;;;;;;;;5018117;28;20198;-73
2021/10/24 13:25:19;;;;;;;7.03;4.95;;;;;;;;;;5019069;28;20838;-72
2021/10/24 13:27:45;;;;;;;5.37;4.87;;;;;;;;;;5020872;28;20195;-73
2021/10/24 13:30:10;;;;;;;13.88;7.68;;;;;;;;;;5017242;28;20549;-74
2021/10/24 13:32:35;;;;;;;8.13;5.13;;;;;;;;;;5021130;28;20186;-74
2021/10/24 13:35:01;;;;;;;6.60;4.50;;;;;;;;;;5016779;28;20836;-75
2021/10/24 13:37:26;;;;;;;8.50;5.28;;;;;;;;;;5019463;28;20556;-74
2021/10/24 13:39:52;;;;;;;5.18;4.60;;;;;;;;;;5021654;28;20210;-74
2021/10/24 13:42:19;;;;;;;6.15;4.82;;;;;;;;;;5015236;28;20197;-74
2021/10/24 13:44:44;;;;;;;8.60;5.22;;;;;;;;;;5016302;28;20702;-74
2021/10/24 13:47:09;;;;;;;6.82;4.82;;;;;;;;;;5015428;28;20273;-73
2021/10/24 13:49:34;;;;;;;6.23;4.93;;;;;;;;;;5014179;28;20209;-74
2021/10/24 13:52:00;;;;;;;5.95;4.85;;;;;;;;;;5023989;28;20422;-74
2021/10/24 13:54:26;;;;;;;5.75;5.10;;;;;;;;;;4999622;28;20178;-74
2021/10/24 13:56:52;;;;;;;9.77;5.25;;;;;;;;;;5017848;28;20322;-72
2021/10/24 13:59:17;;;;;;;6.13;4.77;;;;;;;;;;5014734;28;21931;-72
2021/10/24 14:01:42;;;;;;;7.47;5.15;;;;;;;;;;5015698;28;20442;-74
2021/10/24 14:04:09;;;;;;;6.32;5.70;;;;;;;;;;5016662;28;20241;-73
2021/10/24 14:06:34;;;;;;;8.07;4.85;;;;;;;;;;5012116;28;20374;-74
2021/10/24 14:09:00;;;;;;;6.53;5.28;;;;;;;;;;5023434;23;20198;-71
2021/10/24 14:11:25;;;;;;;5.97;4.75;;;;;;;;;;5015343;28;20214;-73
2021/10/24 14:13:50;;;;;;;7.93;5.18;;;;;;;;;;5013410;28;20198;-73
2021/10/24 14:16:15;;;;;;;8.27;5.10;;;;;;;;;;4996392;28;20205;-71
2021/10/24 14:18:41;;;;;;;6.65;5.10;;;;;;;;;;5010795;28;20780;-71
2021/10/24 14:21:07;;;;;;;5.32;4.82;;;;;;;;;;5003203;28;20178;-71
2021/10/24 14:23:32;;;;;;;6.55;4.95;;;;;;;;;;5007607;28;20641;-71
2021/10/24 14:25:57;;;;;;;5.55;4.93;;;;;;;;;;4994580;28;21130;-71
2021/10/24 14:28:23;;;;;;;5.13;4.55;;;;;;;;;;4996463;28;20654;-71